sensor_id;sensor_type;location;lat;lon;timestamp;P1;durP1;ratioP1;P2;durP2;ratioP2
5209;SDS011;2624;48.048;11.706;2022-10-16T00:00:20;0.80;;;0.80;;
5209;SDS011;2624;48.048;11.706;2022-10-16T00:05:23;0.90;;;0.90;;
5209;SDS011;2624;48.048;11.706;2022-10-16T00:10:25;1.00;;;0.83;;
5209;SDS011;2624;48.048;11.706;2022-10-16T00:15:27;0.60;;;0.60;;
5209;SDS011;2624;48.048;11.706;2022-10-16T00:20:30;9.13;;;1.00;;
5209;SDS011;2624;48.048;11.706;2022-10-16T00:25:36;0.63;;;0.63;;
5209;SDS011;2624;48.048;11.706;2022-10-16T00:30:38;1.90;;;1.10;;
5209;SDS011;2624;48.048;11.706;2022-10-16T00:35:42;0.83;;;0.83;;
5209;SDS011;2624;48.048;11.706;2022-10-16T00:40:43;2.10;;;0.70;;
5209;SDS011;2624;48.048;11.706;2022-10-16T00:45:45;2.30;;;0.97;;
5209;SDS011;2624;48.048;11.706;2022-10-16T00:50:48;2.87;;;0.60;;
5209;SDS011;2624;48.048;11.706;2022-10-16T00:55:50;0.80;;;0.80;;
5209;SDS011;2624;48.048;11.706;2022-10-16T01:00:52;0.60;;;0.60;;
5209;SDS011;2624;48.048;11.706;2022-10-16T01:05:58;0.70;;;0.70;;
5209;SDS011;2624;48.048;11.706;2022-10-16T01:11:12;1.03;;;0.90;;
5209;SDS011;2624;48.048;11.706;2022-10-16T01:16:22;2.40;;;0.70;;
5209;SDS011;2624;48.048;11.706;2022-10-16T01:21:33;0.80;;;0.80;;
5209;SDS011;2624;48.048;11.706;2022-10-16T01:26:52;0.73;;;0.73;;
5209;SDS011;2624;48.048;11.706;2022-10-16T01:32:09;0.70;;;0.70;;
5209;SDS011;2624;48.048;11.706;2022-10-16T01:37:18;0.73;;;0.73;;
5209;SDS011;2624;48.048;11.706;2022-10-16T01:42:26;0.70;;;0.70;;
5209;SDS011;2624;48.048;11.706;2022-10-16T01:47:32;1.53;;;0.97;;
5209;SDS011;2624;48.048;11.706;2022-10-16T01:52:37;0.80;;;0.80;;
5209;SDS011;2624;48.048;11.706;2022-10-16T01:57:45;0.50;;;0.50;;
5209;SDS011;2624;48.048;11.706;2022-10-16T02:02:49;3.40;;;0.87;;
5209;SDS011;2624;48.048;11.706;2022-10-16T02:07:55;0.70;;;0.70;;
5209;SDS011;2624;48.048;11.706;2022-10-16T02:12:59;0.60;;;0.60;;
5209;SDS011;2624;48.048;11.706;2022-10-16T02:18:04;0.73;;;0.73;;
5209;SDS011;2624;48.048;11.706;2022-10-16T02:23:07;5.20;;;0.80;;
5209;SDS011;2624;48.048;11.706;2022-10-16T02:28:16;0.73;;;0.73;;
5209;SDS011;2624;48.048;11.706;2022-10-16T02:33:20;0.80;;;0.80;;
5209;SDS011;2624;48.048;11.706;2022-10-16T02:38:24;1.40;;;0.70;;
5209;SDS011;2624;48.048;11.706;2022-10-16T02:43:28;0.70;;;0.70;;
5209;SDS011;2624;48.048;11.706;2022-10-16T02:48:30;1.17;;;0.90;;
5209;SDS011;2624;48.048;11.706;2022-10-16T02:53:32;2.07;;;0.73;;
5209;SDS011;2624;48.048;11.706;2022-10-16T02:58:35;0.50;;;0.50;;
5209;SDS011;2624;48.048;11.706;2022-10-16T03:03:37;2.00;;;0.60;;
5209;SDS011;2624;48.048;11.706;2022-10-16T03:08:39;0.80;;;0.80;;
5209;SDS011;2624;48.048;11.706;2022-10-16T03:13:42;0.60;;;0.60;;
5209;SDS011;2624;48.048;11.706;2022-10-16T03:18:44;0.53;;;0.53;;
5209;SDS011;2624;48.048;11.706;2022-10-16T03:23:49;0.87;;;0.87;;
5209;SDS011;2624;48.048;11.706;2022-10-16T03:28:52;0.70;;;0.70;;
5209;SDS011;2624;48.048;11.706;2022-10-16T03:33:54;2.77;;;0.80;;
5209;SDS011;2624;48.048;11.706;2022-10-16T03:38:56;1.03;;;1.03;;
5209;SDS011;2624;48.048;11.706;2022-10-16T03:43:59;0.70;;;0.70;;
5209;SDS011;2624;48.048;11.706;2022-10-16T03:49:01;0.80;;;0.80;;
5209;SDS011;2624;48.048;11.706;2022-10-16T03:54:03;0.67;;;0.67;;
5209;SDS011;2624;48.048;11.706;2022-10-16T03:59:06;0.80;;;0.80;;
5209;SDS011;2624;48.048;11.706;2022-10-16T04:04:07;0.70;;;0.70;;
5209;SDS011;2624;48.048;11.706;2022-10-16T04:09:09;1.00;;;1.00;;
5209;SDS011;2624;48.048;11.706;2022-10-16T04:14:12;2.50;;;0.87;;
5209;SDS011;2624;48.048;11.706;2022-10-16T04:19:14;0.83;;;0.83;;
5209;SDS011;2624;48.048;11.706;2022-10-16T04:24:16;1.90;;;0.90;;
5209;SDS011;2624;48.048;11.706;2022-10-16T04:29:19;1.10;;;1.10;;
5209;SDS011;2624;48.048;11.706;2022-10-16T04:34:21;2.40;;;1.00;;
5209;SDS011;2624;48.048;11.706;2022-10-16T04:39:23;1.00;;;1.00;;
5209;SDS011;2624;48.048;11.706;2022-10-16T04:44:26;1.07;;;0.93;;
5209;SDS011;2624;48.048;11.706;2022-10-16T04:49:28;0.73;;;0.73;;
5209;SDS011;2624;48.048;11.706;2022-10-16T04:54:30;7.60;;;0.80;;
5209;SDS011;2624;48.048;11.706;2022-10-16T04:59:33;0.90;;;0.90;;
5209;SDS011;2624;48.048;11.706;2022-10-16T05:04:35;2.40;;;1.20;;
5209;SDS011;2624;48.048;11.706;2022-10-16T05:09:37;1.60;;;0.93;;
5209;SDS011;2624;48.048;11.706;2022-10-16T05:14:40;1.17;;;1.00;;
5209;SDS011;2624;48.048;11.706;2022-10-16T05:19:42;0.90;;;0.90;;
5209;SDS011;2624;48.048;11.706;2022-10-16T05:24:44;3.90;;;1.10;;
5209;SDS011;2624;48.048;11.706;2022-10-16T05:29:47;1.00;;;1.00;;
5209;SDS011;2624;48.048;11.706;2022-10-16T05:34:50;3.70;;;1.07;;
5209;SDS011;2624;48.048;11.706;2022-10-16T05:39:52;5.70;;;1.10;;
5209;SDS011;2624;48.048;11.706;2022-10-16T05:44:55;1.57;;;1.00;;
5209;SDS011;2624;48.048;11.706;2022-10-16T05:49:57;1.40;;;1.40;;
5209;SDS011;2624;48.048;11.706;2022-10-16T05:54:58;3.00;;;1.23;;
5209;SDS011;2624;48.048;11.706;2022-10-16T06:00:02;1.47;;;1.17;;
5209;SDS011;2624;48.048;11.706;2022-10-16T06:05:04;2.20;;;1.07;;
5209;SDS011;2624;48.048;11.706;2022-10-16T06:10:07;0.93;;;0.93;;
5209;SDS011;2624;48.048;11.706;2022-10-16T06:15:11;1.00;;;1.00;;
5209;SDS011;2624;48.048;11.706;2022-10-16T06:20:13;1.53;;;1.43;;
5209;SDS011;2624;48.048;11.706;2022-10-16T06:25:15;1.30;;;1.20;;
5209;SDS011;2624;48.048;11.706;2022-10-16T06:30:18;4.73;;;1.47;;
5209;SDS011;2624;48.048;11.706;2022-10-16T06:35:19;1.50;;;1.47;;
5209;SDS011;2624;48.048;11.706;2022-10-16T06:40:21;1.83;;;1.47;;
5209;SDS011;2624;48.048;11.706;2022-10-16T06:45:25;1.00;;;1.00;;
5209;SDS011;2624;48.048;11.706;2022-10-16T06:50:26;1.70;;;1.60;;
5209;SDS011;2624;48.048;11.706;2022-10-16T06:55:28;2.53;;;2.17;;
5209;SDS011;2624;48.048;11.706;2022-10-16T07:00:32;2.33;;;1.40;;
5209;SDS011;2624;48.048;11.706;2022-10-16T07:05:36;3.40;;;1.20;;
5209;SDS011;2624;48.048;11.706;2022-10-16T07:10:38;1.77;;;1.67;;
5209;SDS011;2624;48.048;11.706;2022-10-16T07:15:42;1.53;;;1.40;;
5209;SDS011;2624;48.048;11.706;2022-10-16T07:20:43;1.40;;;1.30;;
5209;SDS011;2624;48.048;11.706;2022-10-16T07:25:45;2.97;;;1.60;;
5209;SDS011;2624;48.048;11.706;2022-10-16T07:30:55;4.37;;;1.33;;
5209;SDS011;2624;48.048;11.706;2022-10-16T07:36:00;1.10;;;1.10;;
5209;SDS011;2624;48.048;11.706;2022-10-16T07:41:03;3.77;;;1.40;;
5209;SDS011;2624;48.048;11.706;2022-10-16T07:46:07;1.07;;;1.07;;
5209;SDS011;2624;48.048;11.706;2022-10-16T07:51:13;1.03;;;1.03;;
5209;SDS011;2624;48.048;11.706;2022-10-16T07:56:16;1.20;;;1.20;;
5209;SDS011;2624;48.048;11.706;2022-10-16T08:01:20;1.30;;;1.30;;
5209;SDS011;2624;48.048;11.706;2022-10-16T08:06:22;1.63;;;1.40;;
5209;SDS011;2624;48.048;11.706;2022-10-16T08:11:24;1.20;;;1.10;;
5209;SDS011;2624;48.048;11.706;2022-10-16T08:16:27;3.37;;;1.20;;
5209;SDS011;2624;48.048;11.706;2022-10-16T08:21:29;1.27;;;1.23;;
5209;SDS011;2624;48.048;11.706;2022-10-16T08:26:30;0.77;;;0.77;;
5209;SDS011;2624;48.048;11.706;2022-10-16T08:31:34;1.40;;;1.30;;
5209;SDS011;2624;48.048;11.706;2022-10-16T08:36:35;1.47;;;1.00;;
5209;SDS011;2624;48.048;11.706;2022-10-16T08:47:08;1.37;;;1.27;;
5209;SDS011;2624;48.048;11.706;2022-10-16T08:52:18;1.27;;;1.20;;
5209;SDS011;2624;48.048;11.706;2022-10-16T08:57:21;1.30;;;1.30;;
5209;SDS011;2624;48.048;11.706;2022-10-16T09:02:26;0.97;;;0.90;;
5209;SDS011;2624;48.048;11.706;2022-10-16T09:07:34;1.20;;;1.20;;
5209;SDS011;2624;48.048;11.706;2022-10-16T09:12:46;1.67;;;1.57;;
5209;SDS011;2624;48.048;11.706;2022-10-16T09:17:56;1.70;;;1.17;;
5209;SDS011;2624;48.048;11.706;2022-10-16T09:23:13;1.50;;;1.40;;
5209;SDS011;2624;48.048;11.706;2022-10-16T09:28:17;1.07;;;1.07;;
5209;SDS011;2624;48.048;11.706;2022-10-16T09:33:22;1.10;;;1.10;;
5209;SDS011;2624;48.048;11.706;2022-10-16T09:38:27;1.37;;;1.27;;
5209;SDS011;2624;48.048;11.706;2022-10-16T09:43:32;1.33;;;0.93;;
5209;SDS011;2624;48.048;11.706;2022-10-16T09:48:38;1.30;;;1.20;;
5209;SDS011;2624;48.048;11.706;2022-10-16T09:53:46;1.20;;;1.10;;
5209;SDS011;2624;48.048;11.706;2022-10-16T09:58:49;1.20;;;1.10;;
5209;SDS011;2624;48.048;11.706;2022-10-16T10:03:55;1.07;;;1.07;;
5209;SDS011;2624;48.048;11.706;2022-10-16T10:09:03;1.07;;;1.07;;
5209;SDS011;2624;48.048;11.706;2022-10-16T10:14:17;1.90;;;0.97;;
5209;SDS011;2624;48.048;11.706;2022-10-16T10:19:23;0.90;;;0.90;;
5209;SDS011;2624;48.048;11.706;2022-10-16T10:24:25;1.17;;;1.17;;
5209;SDS011;2624;48.048;11.706;2022-10-16T10:29:29;1.00;;;1.00;;
5209;SDS011;2624;48.048;11.706;2022-10-16T10:34:50;1.00;;;1.00;;
5209;SDS011;2624;48.048;11.706;2022-10-16T10:40:07;1.00;;;1.00;;
5209;SDS011;2624;48.048;11.706;2022-10-16T10:45:22;0.73;;;0.73;;
5209;SDS011;2624;48.048;11.706;2022-10-16T10:50:30;9.30;;;1.00;;
5209;SDS011;2624;48.048;11.706;2022-10-16T10:55:40;0.80;;;0.80;;
5209;SDS011;2624;48.048;11.706;2022-10-16T11:00:48;0.80;;;0.80;;
5209;SDS011;2624;48.048;11.706;2022-10-16T11:05:58;1.03;;;1.03;;
5209;SDS011;2624;48.048;11.706;2022-10-16T11:11:05;0.93;;;0.93;;
5209;SDS011;2624;48.048;11.706;2022-10-16T11:16:13;0.87;;;0.87;;
5209;SDS011;2624;48.048;11.706;2022-10-16T11:21:20;0.70;;;0.70;;
5209;SDS011;2624;48.048;11.706;2022-10-16T11:26:24;0.80;;;0.60;;
5209;SDS011;2624;48.048;11.706;2022-10-16T11:31:30;1.63;;;0.90;;
5209;SDS011;2624;48.048;11.706;2022-10-16T11:36:39;0.70;;;0.70;;
5209;SDS011;2624;48.048;11.706;2022-10-16T11:41:47;0.50;;;0.50;;
5209;SDS011;2624;48.048;11.706;2022-10-16T11:46:51;0.73;;;0.73;;
5209;SDS011;2624;48.048;11.706;2022-10-16T11:52:02;0.60;;;0.60;;
5209;SDS011;2624;48.048;11.706;2022-10-16T11:57:11;1.07;;;0.83;;
5209;SDS011;2624;48.048;11.706;2022-10-16T12:02:23;1.63;;;0.70;;
5209;SDS011;2624;48.048;11.706;2022-10-16T12:07:44;0.60;;;0.60;;
5209;SDS011;2624;48.048;11.706;2022-10-16T12:12:51;0.60;;;0.60;;
5209;SDS011;2624;48.048;11.706;2022-10-16T12:17:53;0.60;;;0.60;;
5209;SDS011;2624;48.048;11.706;2022-10-16T12:22:58;0.87;;;0.60;;
5209;SDS011;2624;48.048;11.706;2022-10-16T12:28:03;3.17;;;0.60;;
5209;SDS011;2624;48.048;11.706;2022-10-16T12:33:15;4.33;;;0.80;;
5209;SDS011;2624;48.048;11.706;2022-10-16T12:38:26;0.60;;;0.60;;
5209;SDS011;2624;48.048;11.706;2022-10-16T12:43:36;0.60;;;0.60;;
5209;SDS011;2624;48.048;11.706;2022-10-16T12:48:40;3.07;;;0.60;;
5209;SDS011;2624;48.048;11.706;2022-10-16T12:53:45;2.80;;;0.77;;
5209;SDS011;2624;48.048;11.706;2022-10-16T12:58:53;1.00;;;0.67;;
5209;SDS011;2624;48.048;11.706;2022-10-16T13:04:10;0.60;;;0.60;;
5209;SDS011;2624;48.048;11.706;2022-10-16T13:09:27;0.60;;;0.60;;
5209;SDS011;2624;48.048;11.706;2022-10-16T13:20:12;0.60;;;0.60;;
5209;SDS011;2624;48.048;11.706;2022-10-16T13:25:23;4.40;;;0.80;;
5209;SDS011;2624;48.048;11.706;2022-10-16T13:30:31;0.50;;;0.50;;
5209;SDS011;2624;48.048;11.706;2022-10-16T13:35:45;0.80;;;0.80;;
5209;SDS011;2624;48.048;11.706;2022-10-16T13:40:54;0.90;;;0.80;;
5209;SDS011;2624;48.048;11.706;2022-10-16T13:45:59;0.73;;;0.73;;
5209;SDS011;2624;48.048;11.706;2022-10-16T13:51:04;0.60;;;0.60;;
5209;SDS011;2624;48.048;11.706;2022-10-16T13:56:10;0.73;;;0.73;;
5209;SDS011;2624;48.048;11.706;2022-10-16T14:01:15;1.13;;;0.80;;
5209;SDS011;2624;48.048;11.706;2022-10-16T14:06:20;1.03;;;1.03;;
5209;SDS011;2624;48.048;11.706;2022-10-16T14:11:24;0.50;;;0.50;;
5209;SDS011;2624;48.048;11.706;2022-10-16T14:16:27;0.67;;;0.53;;
5209;SDS011;2624;48.048;11.706;2022-10-16T14:21:30;7.33;;;0.60;;
5209;SDS011;2624;48.048;11.706;2022-10-16T14:26:40;0.50;;;0.50;;
5209;SDS011;2624;48.048;11.706;2022-10-16T14:31:42;0.80;;;0.80;;
5209;SDS011;2624;48.048;11.706;2022-10-16T14:36:55;0.77;;;0.77;;
5209;SDS011;2624;48.048;11.706;2022-10-16T14:41:58;0.57;;;0.57;;
5209;SDS011;2624;48.048;11.706;2022-10-16T14:47:07;0.47;;;0.47;;
5209;SDS011;2624;48.048;11.706;2022-10-16T14:52:13;0.67;;;0.60;;
5209;SDS011;2624;48.048;11.706;2022-10-16T14:57:18;6.23;;;0.80;;
5209;SDS011;2624;48.048;11.706;2022-10-16T15:02:22;0.70;;;0.60;;
5209;SDS011;2624;48.048;11.706;2022-10-16T15:07:31;0.70;;;0.70;;
5209;SDS011;2624;48.048;11.706;2022-10-16T15:12:34;0.63;;;0.60;;
5209;SDS011;2624;48.048;11.706;2022-10-16T15:17:36;0.60;;;0.60;;
5209;SDS011;2624;48.048;11.706;2022-10-16T15:22:38;0.80;;;0.70;;
5209;SDS011;2624;48.048;11.706;2022-10-16T15:27:41;1.27;;;1.03;;
5209;SDS011;2624;48.048;11.706;2022-10-16T15:32:43;0.70;;;0.70;;
5209;SDS011;2624;48.048;11.706;2022-10-16T15:37:45;0.73;;;0.73;;
5209;SDS011;2624;48.048;11.706;2022-10-16T15:42:49;0.50;;;0.50;;
5209;SDS011;2624;48.048;11.706;2022-10-16T15:47:51;1.37;;;0.73;;
5209;SDS011;2624;48.048;11.706;2022-10-16T15:52:53;3.33;;;0.70;;
5209;SDS011;2624;48.048;11.706;2022-10-16T15:57:56;1.03;;;0.90;;
5209;SDS011;2624;48.048;11.706;2022-10-16T16:02:58;0.87;;;0.87;;
5209;SDS011;2624;48.048;11.706;2022-10-16T16:07:59;2.60;;;0.80;;
5209;SDS011;2624;48.048;11.706;2022-10-16T16:13:03;1.23;;;0.60;;
5209;SDS011;2624;48.048;11.706;2022-10-16T16:18:04;3.20;;;0.63;;
5209;SDS011;2624;48.048;11.706;2022-10-16T16:23:06;0.80;;;0.80;;
5209;SDS011;2624;48.048;11.706;2022-10-16T16:28:10;0.90;;;0.90;;
5209;SDS011;2624;48.048;11.706;2022-10-16T16:33:14;0.70;;;0.70;;
5209;SDS011;2624;48.048;11.706;2022-10-16T16:38:16;1.33;;;0.90;;
5209;SDS011;2624;48.048;11.706;2022-10-16T16:43:19;0.80;;;0.80;;
5209;SDS011;2624;48.048;11.706;2022-10-16T16:48:23;1.07;;;0.97;;
5209;SDS011;2624;48.048;11.706;2022-10-16T16:53:25;7.40;;;1.07;;
5209;SDS011;2624;48.048;11.706;2022-10-16T16:58:28;1.90;;;1.80;;
5209;SDS011;2624;48.048;11.706;2022-10-16T17:03:30;2.70;;;2.07;;
5209;SDS011;2624;48.048;11.706;2022-10-16T17:08:34;5.60;;;2.43;;
5209;SDS011;2624;48.048;11.706;2022-10-16T17:13:37;12.23;;;3.00;;
5209;SDS011;2624;48.048;11.706;2022-10-16T17:18:39;1.93;;;1.83;;
5209;SDS011;2624;48.048;11.706;2022-10-16T17:23:42;4.90;;;2.50;;
5209;SDS011;2624;48.048;11.706;2022-10-16T17:28:45;1.37;;;1.37;;
5209;SDS011;2624;48.048;11.706;2022-10-16T17:33:47;2.10;;;2.00;;
5209;SDS011;2624;48.048;11.706;2022-10-16T17:38:50;1.83;;;1.73;;
5209;SDS011;2624;48.048;11.706;2022-10-16T17:43:53;4.40;;;2.50;;
5209;SDS011;2624;48.048;11.706;2022-10-16T17:48:55;2.27;;;1.90;;
5209;SDS011;2624;48.048;11.706;2022-10-16T17:53:57;1.73;;;1.33;;
5209;SDS011;2624;48.048;11.706;2022-10-16T17:59:02;3.20;;;1.53;;
5209;SDS011;2624;48.048;11.706;2022-10-16T18:04:05;3.07;;;1.40;;
5209;SDS011;2624;48.048;11.706;2022-10-16T18:09:09;1.67;;;1.57;;
5209;SDS011;2624;48.048;11.706;2022-10-16T18:14:15;1.87;;;1.77;;
5209;SDS011;2624;48.048;11.706;2022-10-16T18:19:18;2.57;;;1.83;;
5209;SDS011;2624;48.048;11.706;2022-10-16T18:24:21;3.70;;;1.87;;
5209;SDS011;2624;48.048;11.706;2022-10-16T18:29:25;2.00;;;1.90;;
5209;SDS011;2624;48.048;11.706;2022-10-16T18:34:27;2.23;;;2.13;;
5209;SDS011;2624;48.048;11.706;2022-10-16T18:39:29;2.83;;;2.00;;
5209;SDS011;2624;48.048;11.706;2022-10-16T18:44:32;7.50;;;1.80;;
5209;SDS011;2624;48.048;11.706;2022-10-16T18:49:35;2.60;;;2.20;;
5209;SDS011;2624;48.048;11.706;2022-10-16T18:54:37;3.93;;;1.30;;
5209;SDS011;2624;48.048;11.706;2022-10-16T18:59:40;1.93;;;1.47;;
5209;SDS011;2624;48.048;11.706;2022-10-16T19:04:42;4.93;;;1.60;;
5209;SDS011;2624;48.048;11.706;2022-10-16T19:09:43;2.23;;;2.10;;
5209;SDS011;2624;48.048;11.706;2022-10-16T19:14:47;2.00;;;1.80;;
5209;SDS011;2624;48.048;11.706;2022-10-16T19:19:50;1.80;;;1.70;;
5209;SDS011;2624;48.048;11.706;2022-10-16T19:24:52;1.87;;;1.73;;
5209;SDS011;2624;48.048;11.706;2022-10-16T19:29:55;2.30;;;2.20;;
5209;SDS011;2624;48.048;11.706;2022-10-16T19:34:57;1.93;;;1.83;;
5209;SDS011;2624;48.048;11.706;2022-10-16T19:39:58;2.83;;;1.97;;
5209;SDS011;2624;48.048;11.706;2022-10-16T19:45:02;2.07;;;1.97;;
5209;SDS011;2624;48.048;11.706;2022-10-16T19:50:04;2.40;;;2.30;;
5209;SDS011;2624;48.048;11.706;2022-10-16T19:55:09;4.50;;;2.57;;
5209;SDS011;2624;48.048;11.706;2022-10-16T20:00:12;2.27;;;2.17;;
5209;SDS011;2624;48.048;11.706;2022-10-16T20:05:16;2.10;;;2.00;;
5209;SDS011;2624;48.048;11.706;2022-10-16T20:10:18;2.90;;;2.40;;
5209;SDS011;2624;48.048;11.706;2022-10-16T20:15:21;2.20;;;1.87;;
5209;SDS011;2624;48.048;11.706;2022-10-16T20:20:23;2.17;;;2.00;;
5209;SDS011;2624;48.048;11.706;2022-10-16T20:25:25;1.50;;;1.43;;
5209;SDS011;2624;48.048;11.706;2022-10-16T20:30:31;1.40;;;1.30;;
5209;SDS011;2624;48.048;11.706;2022-10-16T20:35:34;1.50;;;1.40;;
5209;SDS011;2624;48.048;11.706;2022-10-16T20:40:37;4.60;;;3.10;;
5209;SDS011;2624;48.048;11.706;2022-10-16T20:45:42;2.73;;;1.53;;
5209;SDS011;2624;48.048;11.706;2022-10-16T20:50:44;5.80;;;2.50;;
5209;SDS011;2624;48.048;11.706;2022-10-16T20:55:46;2.67;;;2.33;;
5209;SDS011;2624;48.048;11.706;2022-10-16T21:00:49;4.17;;;2.53;;
5209;SDS011;2624;48.048;11.706;2022-10-16T21:05:51;2.77;;;1.47;;
5209;SDS011;2624;48.048;11.706;2022-10-16T21:10:53;5.50;;;2.37;;
5209;SDS011;2624;48.048;11.706;2022-10-16T21:15:56;5.77;;;2.00;;
5209;SDS011;2624;48.048;11.706;2022-10-16T21:20:57;3.30;;;1.90;;
5209;SDS011;2624;48.048;11.706;2022-10-16T21:25:59;1.53;;;1.50;;
5209;SDS011;2624;48.048;11.706;2022-10-16T21:31:10;2.00;;;1.87;;
5209;SDS011;2624;48.048;11.706;2022-10-16T21:36:14;1.80;;;1.70;;
5209;SDS011;2624;48.048;11.706;2022-10-16T21:41:18;2.60;;;1.47;;
5209;SDS011;2624;48.048;11.706;2022-10-16T21:46:23;1.70;;;1.70;;
5209;SDS011;2624;48.048;11.706;2022-10-16T21:51:26;2.30;;;1.73;;
5209;SDS011;2624;48.048;11.706;2022-10-16T21:56:30;1.87;;;1.77;;
5209;SDS011;2624;48.048;11.706;2022-10-16T22:01:33;2.57;;;2.20;;
5209;SDS011;2624;48.048;11.706;2022-10-16T22:06:35;5.13;;;4.07;;
5209;SDS011;2624;48.048;11.706;2022-10-16T22:11:37;4.63;;;3.50;;
5209;SDS011;2624;48.048;11.706;2022-10-16T22:16:40;11.90;;;3.47;;
5209;SDS011;2624;48.048;11.706;2022-10-16T22:21:42;5.90;;;2.90;;
5209;SDS011;2624;48.048;11.706;2022-10-16T22:26:46;4.17;;;2.17;;
5209;SDS011;2624;48.048;11.706;2022-10-16T22:31:50;2.80;;;1.80;;
5209;SDS011;2624;48.048;11.706;2022-10-16T22:36:52;1.87;;;1.77;;
5209;SDS011;2624;48.048;11.706;2022-10-16T22:41:54;2.40;;;2.20;;
5209;SDS011;2624;48.048;11.706;2022-10-16T22:46:57;1.57;;;1.47;;
5209;SDS011;2624;48.048;11.706;2022-10-16T22:51:59;9.83;;;1.37;;
5209;SDS011;2624;48.048;11.706;2022-10-16T22:57:01;2.00;;;1.60;;
5209;SDS011;2624;48.048;11.706;2022-10-16T23:02:04;1.90;;;1.60;;
5209;SDS011;2624;48.048;11.706;2022-10-16T23:07:06;6.33;;;1.60;;
5209;SDS011;2624;48.048;11.706;2022-10-16T23:12:08;1.80;;;1.70;;
5209;SDS011;2624;48.048;11.706;2022-10-16T23:17:11;3.10;;;2.00;;
5209;SDS011;2624;48.048;11.706;2022-10-16T23:22:13;1.63;;;1.30;;
5209;SDS011;2624;48.048;11.706;2022-10-16T23:27:14;1.43;;;1.30;;
5209;SDS011;2624;48.048;11.706;2022-10-16T23:32:18;1.57;;;1.47;;
5209;SDS011;2624;48.048;11.706;2022-10-16T23:37:19;3.03;;;1.60;;
5209;SDS011;2624;48.048;11.706;2022-10-16T23:42:21;1.33;;;1.30;;
5209;SDS011;2624;48.048;11.706;2022-10-16T23:47:24;3.50;;;1.63;;
5209;SDS011;2624;48.048;11.706;2022-10-16T23:52:26;1.87;;;1.33;;
5209;SDS011;2624;48.048;11.706;2022-10-16T23:57:28;6.20;;;1.37;;
